Pearl Of Scandinavia — OWFU2 — position and weather

sailwx.info

Track history (hours):
 
Tides and Currents Weather Stations Pressure Air Temp Water Temp Dewpoint Dewpoint Depression Visibility Wind Speed Wind Dir Waves Ship Positions

Pearl Of Scandinavia

Last reported at 2018-Nov-11 02:32 UTC. Time now 2018-Nov-14 02:18 UTC.
Position N 58°24' E 010°44'.

Length 176.4 m; beam 34 m; draft 6.215 m.

Type: Ship. MMSI: 219945000.

Date/timePositionNaut miles runAvg speedWind from/ knotsBaromVisibWave heightAir tempDewpointWater temp
2018-Nov-11 02:32N 58°24' E 010°44'816.8
2018-Nov-11 02:02N 58°16' E 010°49'816.3
2018-Nov-11 01:32N 58°08' E 010°53'816.4
2018-Nov-11 01:03N 58°00' E 010°58'816.8
2018-Nov-11 00:33N 57°52' E 011°03'816.4
2018-Nov-11 00:03N 57°44' E 011°08'816.2
2018-Nov-10 23:33N 57°38' E 011°17'816.2
2018-Nov-10 23:02N 57°31' E 011°25'816.2
2018-Nov-10 22:33N 57°24' E 011°32'816.1
2018-Nov-10 22:03N 57°16' E 011°37'816.1
2018-Nov-10 21:32N 57°08' E 011°41'816.1
2018-Nov-10 21:02N 57°01' E 011°45'3215.6
2018-Nov-10 18:58N 56°32' E 012°13'3616.7
2018-Nov-10 16:48N 55°60' E 012°41'416.8
2018-Nov-10 16:32N 55°55' E 012°44'816.2
2018-Nov-10 16:02N 55°47' E 012°43'612.9
2018-Nov-10 15:33N 55°42' E 012°36'0 0.2
2018-Nov-10 15:00N 55°42' E 012°36'0 0.0
2018-Nov-10 14:30N 55°42' E 012°36'0 0.0
2018-Nov-10 14:00N 55°42' E 012°36'0 0.0
2018-Nov-10 13:27N 55°42' E 012°36'0 0.0
2018-Nov-10 13:00N 55°42' E 012°36'0 0.0
2018-Nov-10 12:24N 55°42' E 012°36'0 0.0
2018-Nov-10 11:54N 55°42' E 012°36'0 0.0
2018-Nov-10 11:27N 55°42' E 012°36'0 0.0
2018-Nov-10 11:00N 55°42' E 012°36'0 0.0
2018-Nov-10 10:24N 55°42' E 012°36'0 0.0
2018-Nov-10 09:54N 55°42' E 012°36'0 0.0
2018-Nov-10 09:30N 55°42' E 012°36'0 0.0
2018-Nov-10 09:02N 55°42' E 012°36'0 0.3
2018-Nov-10 08:32N 55°42' E 012°36'5 9.7
2018-Nov-10 08:02N 55°46' E 012°41'713.7
2018-Nov-10 07:33N 55°53' E 012°40'714.7
2018-Nov-10 07:03N 56°00' E 012°40'713.7
2018-Nov-10 06:30N 56°06' E 012°33'614.0
2018-Nov-10 06:02N 56°12' E 012°27'6115.8
2018-Nov-10 02:09N 57°11' E 011°54'217.6
2018-Nov-10 02:02N 57°12' E 011°52'917.3
2018-Nov-10 01:32N 57°20' E 011°44'917.0
2018-Nov-10 01:02N 57°27' E 011°36'917.2
2018-Nov-10 00:32N 57°35' E 011°29'816.8
2018-Nov-10 00:02N 57°43' E 011°23'816.1
2018-Nov-09 23:32N 57°50' E 011°17'815.9
2018-Nov-09 23:02N 57°57' E 011°12'815.9
2018-Nov-09 22:32N 58°05' E 011°08'815.1
2018-Nov-09 22:02N 58°12' E 011°04'815.5
2018-Nov-09 21:32N 58°20' E 010°60'816.2
2018-Nov-09 21:01N 58°28' E 010°55'815.9
2018-Nov-09 20:32N 58°35' E 010°51'816.0
2018-Nov-09 20:02N 58°43' E 010°47'816.6
2018-Nov-09 19:32N 58°51' E 010°44'917.4
2018-Nov-09 19:02N 58°60' E 010°42'917.3
2018-Nov-09 18:32N 59°08' E 010°39'917.5
2018-Nov-09 18:02N 59°17' E 010°36'917.7
2018-Nov-09 17:32N 59°26' E 010°33'917.5
2018-Nov-09 17:02N 59°34' E 010°38'714.8
2018-Nov-09 16:32N 59°41' E 010°36'815.9
2018-Nov-09 16:02N 59°49' E 010°34'713.8
2018-Nov-09 15:32N 59°54' E 010°44'0 0.5
2018-Nov-09 15:02N 59°54' E 010°45'0 0.0
2018-Nov-09 14:32N 59°54' E 010°45'0 0.0
2018-Nov-09 13:59N 59°54' E 010°45'0 0.0
2018-Nov-09 13:32N 59°54' E 010°45'0 0.0
2018-Nov-09 13:02N 59°54' E 010°45'0 0.0
2018-Nov-09 12:32N 59°54' E 010°45'0 0.0
2018-Nov-09 12:02N 59°54' E 010°45'0 0.0
2018-Nov-09 11:32N 59°54' E 010°45'0 0.0
2018-Nov-09 11:02N 59°54' E 010°45'0 0.0
2018-Nov-09 10:32N 59°54' E 010°45'0 0.0
2018-Nov-09 10:02N 59°54' E 010°45'0 0.0
2018-Nov-09 09:32N 59°54' E 010°45'0 0.0
2018-Nov-09 09:02N 59°54' E 010°45'0 0.2
2018-Nov-09 08:32N 59°54' E 010°45'713.7
2018-Nov-09 08:02N 59°49' E 010°35'714.6
2018-Nov-09 07:32N 59°42' E 010°36'713.5
2018-Nov-09 07:02N 59°35' E 010°38'815.6
2018-Nov-09 06:32N 59°28' E 010°34'815.5
2018-Nov-09 06:02N 59°20' E 010°36'815.8
2018-Nov-09 05:32N 59°12' E 010°38'815.8
2018-Nov-09 05:02N 59°04' E 010°41'816.2
2018-Nov-09 04:32N 58°56' E 010°42'816.0
2018-Nov-09 04:02N 58°48' E 010°44'816.0
2018-Nov-09 03:32N 58°40' E 010°46'815.8
2018-Nov-09 03:01N 58°33' E 010°51'816.2
2018-Nov-09 02:32N 58°25' E 010°56'816.1
2018-Nov-09 02:02N 58°18' E 011°01'816.0
2018-Nov-09 01:32N 58°10' E 011°06'817.1
2018-Nov-09 01:02N 58°02' E 011°11'816.9
2018-Nov-09 00:32N 57°54' E 011°16'816.4
2018-Nov-09 00:02N 57°46' E 011°21'816.2
2018-Nov-08 23:32N 57°39' E 011°27'815.7
2018-Nov-08 23:02N 57°31' E 011°31'816.5
2018-Nov-08 22:32N 57°24' E 011°39'917.1
2018-Nov-08 22:02N 57°17' E 011°48'817.0
2018-Nov-08 21:32N 57°10' E 011°55'816.3
2018-Nov-08 21:02N 57°02' E 012°01'5816.0
2018-Nov-08 17:24N 56°07' E 012°34'617.1
2018-Nov-08 17:02N 56°02' E 012°40'816.6
2018-Nov-08 16:32N 55°54' E 012°44'815.2
2018-Nov-08 16:02N 55°46' E 012°42'510.9
2018-Nov-08 15:32N 55°42' E 012°36'0 0.1
2018-Nov-08 15:02N 55°42' E 012°36'0 0.0
2018-Nov-08 14:32N 55°42' E 012°36'0 0.0
2018-Nov-08 14:02N 55°42' E 012°36'0 0.0
2018-Nov-08 13:32N 55°42' E 012°36'0 0.0
2018-Nov-08 12:56N 55°42' E 012°36'0 0.0
2018-Nov-08 12:32N 55°42' E 012°36'0 0.0
2018-Nov-08 12:02N 55°42' E 012°36'0 0.0
2018-Nov-08 11:32N 55°42' E 012°36'0 0.0
2018-Nov-08 11:02N 55°42' E 012°36'0 0.0
2018-Nov-08 10:32N 55°42' E 012°36'0 0.0
2018-Nov-08 10:02N 55°42' E 012°36'0 0.0
2018-Nov-08 09:32N 55°42' E 012°36'0 0.0
2018-Nov-08 09:02N 55°42' E 012°36'0 0.8
2018-Nov-08 08:33N 55°42' E 012°36'510.0
2018-Nov-08 08:02N 55°46' E 012°41'714.3
2018-Nov-08 07:32N 55°54' E 012°40'714.6
2018-Nov-08 07:02N 56°01' E 012°40'713.6
2018-Nov-08 06:33N 56°06' E 012°33'813.8
2018-Nov-08 05:58N 56°13' E 012°26'2515.2
2018-Nov-08 04:22N 56°37' E 012°15'3815.6
2018-Nov-08 01:56N 57°13' E 011°53'615.9
2018-Nov-08 01:32N 57°18' E 011°48'816.0
2018-Nov-08 01:02N 57°25' E 011°40'516.3
2018-Nov-08 00:43N 57°29' E 011°35'315.7
2018-Nov-08 00:32N 57°32' E 011°32'115.3
2018-Nov-08 00:29N 57°33' E 011°31'716.2
2018-Nov-08 00:02N 57°39' E 011°25'816.4
2018-Nov-07 23:32N 57°47' E 011°19'816.5
2018-Nov-07 23:03N 57°54' E 011°14'816.3
2018-Nov-07 22:32N 58°02' E 011°10'815.9
2018-Nov-07 22:02N 58°10' E 011°05'816.1
2018-Nov-07 21:32N 58°18' E 011°01'816.0
2018-Nov-07 21:01N 58°26' E 010°57'1016.8
2018-Nov-07 20:25N 58°35' E 010°51'716.3
2018-Nov-07 20:01N 58°42' E 010°47'816.9
2018-Nov-07 19:32N 58°49' E 010°44'816.4
2018-Nov-07 19:02N 58°57' E 010°40'917.1
2018-Nov-07 18:32N 59°06' E 010°40'917.3
2018-Nov-07 18:02N 59°14' E 010°37'918.2
2018-Nov-07 17:32N 59°23' E 010°34'917.8
2018-Nov-07 17:02N 59°32' E 010°36'816.1
2018-Nov-07 16:32N 59°40' E 010°37'815.7
2018-Nov-07 16:02N 59°48' E 010°34'815.0
2018-Nov-07 15:32N 59°54' E 010°43'1 1.2
2018-Nov-07 14:57N 59°54' E 010°45'0 0.0
2018-Nov-07 14:30N 59°54' E 010°45'0 0.0
2018-Nov-07 14:00N 59°54' E 010°45'0 0.0
2018-Nov-07 13:30N 59°54' E 010°45'0 0.0
2018-Nov-07 12:57N 59°54' E 010°45'0 0.0
2018-Nov-07 12:30N 59°54' E 010°45'0 0.0
2018-Nov-07 12:00N 59°54' E 010°45'0 0.0
2018-Nov-07 11:30N 59°54' E 010°45'0 0.0
2018-Nov-07 11:00N 59°54' E 010°45'0 0.0
2018-Nov-07 10:30N 59°54' E 010°45'0 0.0
2018-Nov-07 09:57N 59°54' E 010°45'0 0.0
2018-Nov-07 09:30N 59°54' E 010°45'0 0.0
2018-Nov-07 09:00N 59°54' E 010°45'0 0.3
2018-Nov-07 08:32N 59°54' E 010°44'713.9
2018-Nov-07 08:02N 59°49' E 010°35'815.2
2018-Nov-07 07:32N 59°41' E 010°36'714.3
2018-Nov-07 07:02N 59°34' E 010°38'815.4
2018-Nov-07 06:32N 59°27' E 010°34'815.3
2018-Nov-07 06:02N 59°20' E 010°36'815.3
2018-Nov-07 05:32N 59°12' E 010°39'815.4
2018-Nov-07 05:02N 59°04' E 010°41'815.9
2018-Nov-07 04:32N 58°57' E 010°43'8216.2
2018-Nov-06 23:30N 57°38' E 011°27'716.4
2018-Nov-06 23:04N 57°31' E 011°32'117.0
2018-Nov-06 23:00N 57°31' E 011°33'1716.6
2018-Nov-06 22:00N 57°16' E 011°49'816.6
2018-Nov-06 21:30N 57°09' E 011°56'715.8
2018-Nov-06 21:02N 57°02' E 012°01'315.4
2018-Nov-06 20:50N 56°60' E 012°04'516.2
2018-Nov-06 20:30N 56°55' E 012°07'716.2
2018-Nov-06 20:03N 56°48' E 012°11'116.3
2018-Nov-06 19:59N 56°46' E 012°12'815.8
2018-Nov-06 19:30N 56°39' E 012°15'1115.5
2018-Nov-06 18:48N 56°28' E 012°19'2216.0
2018-Nov-06 17:24N 56°07' E 012°33'617.6
2018-Nov-06 17:03N 56°03' E 012°40'116.9
2018-Nov-06 17:00N 56°02' E 012°40'816.9
2018-Nov-06 16:30N 55°54' E 012°46'715.8
2018-Nov-06 16:03N 55°47' E 012°43'115.1
2018-Nov-06 16:00N 55°46' E 012°43'611.4
2018-Nov-06 15:31N 55°42' E 012°36'0 0.0
2018-Nov-06 15:03N 55°42' E 012°36'0 0.0
2018-Nov-06 15:00N 55°42' E 012°36'0 0.0
2018-Nov-06 14:29N 55°42' E 012°36'0 0.0
2018-Nov-06 14:02N 55°42' E 012°36'0 0.0
2018-Nov-06 13:56N 55°42' E 012°36'0 0.0
2018-Nov-06 13:29N 55°42' E 012°36'0 0.0
2018-Nov-06 13:02N 55°42' E 012°36'0 0.0
2018-Nov-06 12:59N 55°42' E 012°36'0 0.0
2018-Nov-06 12:26N 55°42' E 012°36'0 0.0
2018-Nov-06 12:02N 55°42' E 012°36'0 0.0
2018-Nov-06 11:59N 55°42' E 012°36'0 0.0
2018-Nov-06 11:29N 55°42' E 012°36'0 0.0
2018-Nov-06 11:02N 55°42' E 012°36'0 0.0
2018-Nov-06 10:59N 55°42' E 012°36'0 0.0
2018-Nov-06 10:29N 55°42' E 012°36'0 0.0
2018-Nov-06 10:02N 55°42' E 012°36'0 0.0
2018-Nov-06 09:59N 55°42' E 012°36'0 0.0
2018-Nov-06 09:29N 55°42' E 012°36'0 0.0
2018-Nov-06 09:02N 55°42' E 012°36'0 0.0
2018-Nov-06 08:59N 55°42' E 012°36'0 0.7
2018-Nov-06 08:30N 55°42' E 012°36'510.9
2018-Nov-06 08:03N 55°46' E 012°41'113.5
2018-Nov-06 08:01N 55°47' E 012°42'713.2
2018-Nov-06 07:30N 55°53' E 012°39'613.9
2018-Nov-06 07:03N 55°60' E 012°40'115.1
2018-Nov-06 07:00N 56°00' E 012°40'713.5
2018-Nov-06 06:30N 56°06' E 012°33'713.8
2018-Nov-06 06:01N 56°12' E 012°27'014.2
2018-Nov-06 05:59N 56°12' E 012°27'6317.1
2018-Nov-06 02:17N 57°13' E 011°54'416.8
2018-Nov-06 02:03N 57°16' E 011°50'116.9
2018-Nov-06 02:00N 57°17' E 011°50'816.6
2018-Nov-06 01:31N 57°24' E 011°41'816.1
2018-Nov-06 01:01N 57°31' E 011°34'2516.4
2018-Nov-05 23:31N 57°53' E 011°13'716.1
2018-Nov-05 23:03N 58°00' E 011°11'116.3
2018-Nov-05 23:01N 58°01' E 011°10'815.9
2018-Nov-05 22:30N 58°08' E 011°06'715.9
2018-Nov-05 22:03N 58°15' E 011°02'115.7
2018-Nov-05 22:01N 58°16' E 011°02'815.9
2018-Nov-05 21:30N 58°24' E 010°58'716.4
2018-Nov-05 21:03N 58°31' E 010°54'115.9
2018-Nov-05 21:00N 58°32' E 010°53'815.7
2018-Nov-05 20:30N 58°39' E 010°49'715.8
2018-Nov-05 20:03N 58°46' E 010°46'116.5
2018-Nov-05 20:00N 58°47' E 010°46'816.5
2018-Nov-05 19:30N 58°55' E 010°43'817.2
2018-Nov-05 19:03N 59°03' E 010°41'116.9
2018-Nov-05 19:00N 59°03' E 010°40'816.8
2018-Nov-05 18:31N 59°12' E 010°38'817.1
2018-Nov-05 18:03N 59°19' E 010°35'117.0
2018-Nov-05 18:01N 59°20' E 010°35'816.9
2018-Nov-05 17:31N 59°29' E 010°34'816.8
2018-Nov-05 17:03N 59°36' E 010°38'116.7
2018-Nov-05 17:01N 59°37' E 010°37'815.0
2018-Nov-05 16:31N 59°44' E 010°33'817.0
2018-Nov-05 16:03N 59°51' E 010°36'117.1
2018-Nov-05 16:01N 59°52' E 010°38'4 8.2
2018-Nov-05 15:30N 59°54' E 010°45'0 0.0
2018-Nov-05 15:03N 59°54' E 010°45'0 0.0
2018-Nov-05 14:59N 59°54' E 010°45'0 0.0
2018-Nov-05 14:28N 59°54' E 010°45'0 0.0
2018-Nov-05 14:01N 59°54' E 010°45'0 0.0
2018-Nov-05 13:55N 59°54' E 010°45'0 0.0
2018-Nov-05 13:01N 59°54' E 010°45'0 0.0
2018-Nov-05 12:58N 59°54' E 010°45'0 0.0
2018-Nov-05 12:28N 59°54' E 010°45'0 0.0
2018-Nov-05 12:01N 59°54' E 010°45'0 0.0
2018-Nov-05 11:55N 59°54' E 010°45'0 0.0
2018-Nov-05 11:23N 59°54' E 010°45'0 0.0
2018-Nov-05 11:02N 59°54' E 010°45'0 0.0
2018-Nov-05 10:58N 59°54' E 010°45'0 0.0
2018-Nov-05 10:29N 59°54' E 010°45'0 0.0
2018-Nov-05 09:58N 59°54' E 010°45'0 0.0
2018-Nov-05 09:28N 59°54' E 010°45'0 0.0
2018-Nov-05 09:02N 59°54' E 010°45'0 0.0
2018-Nov-05 08:58N 59°54' E 010°45'0 0.6
2018-Nov-05 08:30N 59°54' E 010°44'613.2
2018-Nov-05 08:03N 59°50' E 010°36'115.6
2018-Nov-05 08:00N 59°49' E 010°35'714.8
2018-Nov-05 07:30N 59°42' E 010°36'614.1
2018-Nov-05 07:03N 59°35' E 010°38'115.4
2018-Nov-05 07:00N 59°35' E 010°38'815.5
2018-Nov-05 06:31N 59°27' E 010°34'716.1
2018-Nov-05 06:03N 59°20' E 010°36'116.6
2018-Nov-05 06:00N 59°19' E 010°36'816.6
2018-Nov-05 05:30N 59°11' E 010°39'715.9
2018-Nov-05 05:04N 59°04' E 010°41'115.8
2018-Nov-05 05:00N 59°03' E 010°41'815.7
2018-Nov-05 04:30N 58°56' E 010°44'715.3
2018-Nov-05 04:03N 58°49' E 010°46'115.8
2018-Nov-05 04:00N 58°48' E 010°46'816.4
2018-Nov-05 03:30N 58°40' E 010°48'715.7
2018-Nov-05 03:04N 58°33' E 010°51'115.9
2018-Nov-05 03:00N 58°32' E 010°52'816.4
2018-Nov-05 02:31N 58°24' E 010°57'816.4
2018-Nov-05 02:03N 58°17' E 011°01'116.0
2018-Nov-05 02:01N 58°17' E 011°02'918.0
2018-Nov-05 01:30N 58°08' E 011°07'716.5
2018-Nov-05 01:03N 58°01' E 011°12'116.1
2018-Nov-05 01:01N 58°00' E 011°12'816.0
2018-Nov-05 00:31N 57°53' E 011°18'715.7
2018-Nov-05 00:04N 57°46' E 011°22'116.0
2018-Nov-05 00:01N 57°46' E 011°23'816.0
2018-Nov-04 23:31N 57°38' E 011°27'715.5
2018-Nov-04 23:04N 57°31' E 011°32'116.2
2018-Nov-04 23:01N 57°31' E 011°33'816.4
2018-Nov-04 22:30N 57°24' E 011°40'716.5
2018-Nov-04 22:03N 57°17' E 011°48'116.1
2018-Nov-04 22:00N 57°17' E 011°49'816.2
2018-Nov-04 21:30N 57°10' E 011°56'715.8
2018-Nov-04 21:03N 57°03' E 012°01'116.2
2018-Nov-04 21:00N 57°02' E 012°01'1815.8
2018-Nov-04 19:51N 56°45' E 012°12'4516.3
2018-Nov-04 17:03N 56°02' E 012°40'117.0
2018-Nov-04 17:00N 56°01' E 012°40'917.1
2018-Nov-04 16:30N 55°53' E 012°44'716.6
2018-Nov-04 16:04N 55°46' E 012°42'115.8
2018-Nov-04 16:00N 55°45' E 012°42'4 8.6
2018-Nov-04 15:30N 55°42' E 012°36'0 0.0
2018-Nov-04 15:02N 55°42' E 012°36'0 0.0
2018-Nov-04 14:59N 55°42' E 012°36'0 0.0
2018-Nov-04 14:29N 55°42' E 012°36'0 0.0
2018-Nov-04 14:02N 55°42' E 012°36'0 0.0
2018-Nov-04 13:59N 55°42' E 012°36'0 0.0
2018-Nov-04 13:29N 55°42' E 012°36'0 0.0
2018-Nov-04 13:02N 55°42' E 012°36'0 0.0
2018-Nov-04 12:59N 55°42' E 012°36'0 0.0
2018-Nov-04 12:29N 55°42' E 012°36'0 0.0
2018-Nov-04 11:59N 55°42' E 012°36'0 0.0
2018-Nov-04 11:29N 55°42' E 012°36'0 0.0
2018-Nov-04 11:02N 55°42' E 012°36'0 0.0
2018-Nov-04 10:59N 55°42' E 012°36'0 0.0
2018-Nov-04 10:29N 55°42' E 012°36'0 0.0
2018-Nov-04 10:02N 55°42' E 012°36'0 0.0
2018-Nov-04 09:56N 55°42' E 012°36'0 0.0
2018-Nov-04 09:26N 55°42' E 012°36'0 0.0
2018-Nov-04 08:56N 55°42' E 012°36'0 0.8
2018-Nov-04 08:30N 55°42' E 012°36'510.7
2018-Nov-04 08:03N 55°46' E 012°41'113.5
2018-Nov-04 08:00N 55°47' E 012°42'713.4
2018-Nov-04 07:30N 55°53' E 012°40'614.2
2018-Nov-04 07:03N 55°60' E 012°40'114.7
2018-Nov-04 07:00N 56°01' E 012°40'713.8
2018-Nov-04 06:29N 56°07' E 012°33'614.1
2018-Nov-04 06:02N 56°12' E 012°27'114.3
2018-Nov-04 05:58N 56°13' E 012°27'6416.6
2018-Nov-04 02:07N 57°14' E 011°52'118.4
2018-Nov-04 02:03N 57°15' E 011°51'118.4
2018-Nov-04 02:00N 57°16' E 011°50'917.8
2018-Nov-04 01:31N 57°23' E 011°40'716.6
2018-Nov-04 01:03N 57°29' E 011°33'117.0
2018-Nov-04 01:00N 57°30' E 011°32'917.1
2018-Nov-04 00:30N 57°38' E 011°26'816.9
2018-Nov-04 00:03N 57°45' E 011°20'116.9
2018-Nov-04 00:00N 57°46' E 011°20'816.9
2018-Nov-03 23:30N 57°54' E 011°14'716.1
2018-Nov-03 23:03N 58°01' E 011°10'115.3
2018-Nov-03 23:00N 58°01' E 011°10'815.4
2018-Nov-03 22:30N 58°09' E 011°06'3115.4
2018-Nov-03 20:30N 58°39' E 010°49'715.4
2018-Nov-03 20:03N 58°45' E 010°46'116.0
2018-Nov-03 20:00N 58°46' E 010°46'816.3
2018-Nov-03 19:30N 58°54' E 010°44'716.2
2018-Nov-03 19:03N 59°01' E 010°41'116.0
2018-Nov-03 19:00N 59°02' E 010°41'816.2
2018-Nov-03 18:30N 59°10' E 010°39'716.3
2018-Nov-03 18:03N 59°17' E 010°36'116.4
2018-Nov-03 18:00N 59°18' E 010°36'816.6
2018-Nov-03 17:30N 59°26' E 010°33'816.7
2018-Nov-03 17:03N 59°33' E 010°37'116.5
2018-Nov-03 17:00N 59°34' E 010°38'815.1
2018-Nov-03 16:30N 59°42' E 010°35'716.5
2018-Nov-03 16:03N 59°49' E 010°34'117.2
2018-Nov-03 16:00N 59°50' E 010°35'713.2
2018-Nov-03 15:30N 59°54' E 010°45'0 0.2
2018-Nov-03 15:01N 59°54' E 010°45'0 0.0
2018-Nov-03 14:58N 59°54' E 010°45'0 0.0
2018-Nov-03 14:28N 59°54' E 010°45'0 0.0
2018-Nov-03 14:01N 59°54' E 010°45'0 0.0
2018-Nov-03 13:58N 59°54' E 010°45'0 0.0
2018-Nov-03 13:28N 59°54' E 010°45'0 0.0
2018-Nov-03 13:01N 59°54' E 010°45'0 0.0
2018-Nov-03 12:58N 59°54' E 010°45'0 0.0
2018-Nov-03 12:28N 59°54' E 010°45'0 0.0
2018-Nov-03 12:01N 59°54' E 010°45'0 0.0
2018-Nov-03 11:58N 59°54' E 010°45'0 0.0
2018-Nov-03 11:28N 59°54' E 010°45'0 0.0
2018-Nov-03 11:01N 59°54' E 010°45'0 0.0
2018-Nov-03 10:58N 59°54' E 010°45'0 0.0
2018-Nov-03 10:28N 59°54' E 010°45'0 0.0
2018-Nov-03 10:01N 59°54' E 010°45'0 0.0
2018-Nov-03 09:58N 59°54' E 010°45'0 0.0
2018-Nov-03 09:28N 59°54' E 010°45'0 0.0
2018-Nov-03 09:01N 59°54' E 010°45'0 0.0
2018-Nov-03 08:58N 59°54' E 010°45'0 0.2
2018-Nov-03 08:30N 59°54' E 010°45'613.5
2018-Nov-03 08:03N 59°50' E 010°36'116.3
2018-Nov-03 08:00N 59°49' E 010°35'612.3
2018-Nov-03 07:30N 59°43' E 010°35'614.2
2018-Nov-03 07:03N 59°37' E 010°38'117.4
2018-Nov-03 07:00N 59°36' E 010°38'714.9
2018-Nov-03 06:31N 59°29' E 010°34'715.4
2018-Nov-03 06:04N 59°22' E 010°35'115.9
2018-Nov-03 06:01N 59°21' E 010°35'815.7
2018-Nov-03 05:31N 59°13' E 010°38'715.9
2018-Nov-03 05:04N 59°06' E 010°41'116.0
2018-Nov-03 05:01N 59°05' E 010°41'815.8
2018-Nov-03 04:31N 58°58' E 010°43'715.9
2018-Nov-03 04:03N 58°51' E 010°46'116.0
2018-Nov-03 04:00N 58°50' E 010°46'815.8
2018-Nov-03 03:30N 58°42' E 010°49'715.5
2018-Nov-03 03:03N 58°35' E 010°51'115.7
2018-Nov-03 03:01N 58°34' E 010°51'815.6
2018-Nov-03 02:30N 58°27' E 010°55'715.8
2018-Nov-03 02:02N 58°20' E 010°59'116.3
2018-Nov-03 02:00N 58°19' E 010°60'816.2
2018-Nov-03 01:30N 58°12' E 011°05'715.9
2018-Nov-03 01:03N 58°05' E 011°09'115.7
2018-Nov-03 01:01N 58°04' E 011°09'815.9
2018-Nov-03 00:31N 57°57' E 011°14'716.0
2018-Nov-03 00:04N 57°50' E 011°19'116.3
2018-Nov-03 00:01N 57°49' E 011°19'816.2
2018-Nov-02 23:31N 57°41' E 011°25'716.0
2018-Nov-02 23:03N 57°35' E 011°30'115.8
2018-Nov-02 23:01N 57°34' E 011°30'815.7
2018-Nov-02 22:31N 57°27' E 011°37'715.8
2018-Nov-02 22:04N 57°21' E 011°44'116.0
2018-Nov-02 22:01N 57°20' E 011°45'815.6
2018-Nov-02 21:31N 57°14' E 011°53'715.8
2018-Nov-02 21:04N 57°07' E 011°57'116.0
2018-Nov-02 21:01N 57°07' E 011°58'916.0
2018-Nov-02 20:27N 56°58' E 012°05'5416.9
2018-Nov-02 17:14N 56°06' E 012°34'318.6
2018-Nov-02 17:04N 56°04' E 012°38'118.2
2018-Nov-02 17:01N 56°03' E 012°39'917.1
2018-Nov-02 16:31N 55°55' E 012°44'816.8
2018-Nov-02 16:04N 55°48' E 012°43'115.9
2018-Nov-02 16:01N 55°47' E 012°42'612.0
2018-Nov-02 15:30N 55°42' E 012°36'0 0.1
2018-Nov-02 15:03N 55°42' E 012°36'0 0.0
2018-Nov-02 14:59N 55°42' E 012°36'0 0.0
2018-Nov-02 14:29N 55°42' E 012°36'0 0.0
2018-Nov-02 13:59N 55°42' E 012°36'0 0.0
2018-Nov-02 13:29N 55°42' E 012°36'0 0.0
2018-Nov-02 12:59N 55°42' E 012°36'0 0.0
2018-Nov-02 12:29N 55°42' E 012°36'0 0.0
2018-Nov-02 12:02N 55°42' E 012°36'0 0.0
2018-Nov-02 11:59N 55°42' E 012°36'0 0.0
2018-Nov-02 11:29N 55°42' E 012°36'0 0.0
2018-Nov-02 10:59N 55°42' E 012°36'0 0.0
2018-Nov-02 10:26N 55°42' E 012°36'0 0.0
2018-Nov-02 10:02N 55°42' E 012°36'0 0.0
2018-Nov-02 09:53N 55°42' E 012°36'0 0.0
2018-Nov-02 09:29N 55°42' E 012°36'0 0.0
2018-Nov-02 09:02N 55°42' E 012°36'0 0.0
2018-Nov-02 08:53N 55°42' E 012°36'0 0.9
2018-Nov-02 08:31N 55°42' E 012°36'511.9
2018-Nov-02 08:03N 55°47' E 012°42'115.1
2018-Nov-02 08:00N 55°48' E 012°42'815.0
2018-Nov-02 07:30N 55°55' E 012°39'715.2
2018-Nov-02 07:03N 56°02' E 012°40'114.7
2018-Nov-02 07:00N 56°02' E 012°39'713.8
2018-Nov-02 06:30N 56°07' E 012°31'614.2
2018-Nov-02 06:03N 56°13' E 012°26'6315.4
2018-Nov-02 01:57N 57°14' E 011°52'716.8
2018-Nov-02 01:30N 57°20' E 011°45'816.7
2018-Nov-02 01:03N 57°27' E 011°39'117.0
2018-Nov-02 01:00N 57°28' E 011°38'117.0
2018-Nov-02 00:56N 57°29' E 011°37'616.8
2018-Nov-02 00:36N 57°34' E 011°32'216.7
2018-Nov-02 00:30N 57°35' E 011°30'716.6
2018-Nov-02 00:03N 57°41' E 011°23'116.3
2018-Nov-02 00:00N 57°42' E 011°23'816.5
2018-Nov-01 23:30N 57°50' E 011°17'716.5
2018-Nov-01 23:03N 57°57' E 011°13'116.1
2018-Nov-01 23:00N 57°58' E 011°12'816.0
2018-Nov-01 22:30N 58°05' E 011°08'715.6
2018-Nov-01 22:03N 58°12' E 011°04'115.7
2018-Nov-01 22:00N 58°13' E 011°04'815.9
2018-Nov-01 21:30N 58°21' E 010°60'716.2
2018-Nov-01 21:03N 58°28' E 010°56'116.5
2018-Nov-01 21:00N 58°28' E 010°55'816.8
2018-Nov-01 20:30N 58°37' E 010°51'817.0
2018-Nov-01 20:03N 58°44' E 010°47'116.9
2018-Nov-01 20:00N 58°45' E 010°47'917.2
2018-Nov-01 19:30N 58°53' E 010°44'817.1
2018-Nov-01 19:03N 59°01' E 010°41'117.1
2018-Nov-01 19:00N 59°01' E 010°41'917.2
2018-Nov-01 18:30N 59°10' E 010°38'817.0
2018-Nov-01 18:03N 59°18' E 010°36'117.1
2018-Nov-01 18:00N 59°18' E 010°36'917.0
2018-Nov-01 17:30N 59°27' E 010°33'817.7
2018-Nov-01 17:03N 59°34' E 010°38'117.7
2018-Nov-01 17:00N 59°35' E 010°38'815.2
2018-Nov-01 16:30N 59°43' E 010°35'715.0
2018-Nov-01 16:03N 59°49' E 010°34'117.3
2018-Nov-01 16:00N 59°50' E 010°35'612.5
2018-Nov-01 15:30N 59°54' E 010°45'0 0.1
2018-Nov-01 15:01N 59°54' E 010°45'0 0.0
2018-Nov-01 14:53N 59°54' E 010°45'0 0.0
2018-Nov-01 14:22N 59°54' E 010°45'0 0.0
2018-Nov-01 13:55N 59°54' E 010°45'0 0.0
2018-Nov-01 13:28N 59°54' E 010°45'0 0.0
2018-Nov-01 12:58N 59°54' E 010°45'0 0.0
2018-Nov-01 12:29N 59°54' E 010°45'0 0.0
2018-Nov-01 11:59N 59°54' E 010°45'0 0.0
2018-Nov-01 11:28N 59°54' E 010°45'0 0.0
2018-Nov-01 10:58N 59°54' E 010°45'0 0.0
2018-Nov-01 10:28N 59°54' E 010°45'0 0.0
2018-Nov-01 10:01N 59°54' E 010°45'0 0.0
2018-Nov-01 09:58N 59°54' E 010°45'0 0.0
2018-Nov-01 09:28N 59°54' E 010°45'0 0.0
2018-Nov-01 09:01N 59°54' E 010°45'0 0.0
2018-Nov-01 08:58N 59°54' E 010°45'0 1.1
2018-Nov-01 08:30N 59°54' E 010°44'613.8
2018-Nov-01 08:03N 59°50' E 010°35'115.8
2018-Nov-01 08:00N 59°49' E 010°35'714.7
2018-Nov-01 07:30N 59°41' E 010°36'613.6
2018-Nov-01 07:03N 59°35' E 010°38'114.5
2018-Nov-01 07:01N 59°35' E 010°38'714.8
2018-Nov-01 06:31N 59°28' E 010°34'715.4
2018-Nov-01 06:03N 59°21' E 010°36'115.8
2018-Nov-01 06:00N 59°20' E 010°36'815.8
2018-Nov-01 05:31N 59°12' E 010°39'715.4
2018-Nov-01 05:03N 59°05' E 010°41'115.4
2018-Nov-01 05:01N 59°05' E 010°41'815.6
2018-Nov-01 04:30N 58°57' E 010°43'715.5
2018-Nov-01 04:04N 58°50' E 010°44'115.3
2018-Nov-01 04:01N 58°49' E 010°44'815.5
2018-Nov-01 03:30N 58°41' E 010°46'715.9
2018-Nov-01 03:04N 58°35' E 010°50'116.0
2018-Nov-01 03:00N 58°34' E 010°50'  
Track history (hours):
 
Tides and Currents Weather Stations Pressure Air Temp Water Temp Dewpoint Dewpoint Depression Visibility Wind Speed Wind Dir Waves Ship Positions

Pearl Of Scandinavia

Last reported at 2018-Nov-11 02:32 UTC. Time now 2018-Nov-14 02:18 UTC.
Position N 58°24' E 010°44'.

Length 176.4 m; beam 34 m; draft 6.215 m.

Type: Ship. MMSI: 219945000.

Date/timePositionNaut miles runAvg speedWind from/ knotsBaromVisibWave heightAir tempDewpointWater temp
2018-Nov-11 02:32N 58°24' E 010°44'816.8
2018-Nov-11 02:02N 58°16' E 010°49'816.3
2018-Nov-11 01:32N 58°08' E 010°53'816.4
2018-Nov-11 01:03N 58°00' E 010°58'816.8
2018-Nov-11 00:33N 57°52' E 011°03'816.4
2018-Nov-11 00:03N 57°44' E 011°08'816.2
2018-Nov-10 23:33N 57°38' E 011°17'816.2
2018-Nov-10 23:02N 57°31' E 011°25'816.2
2018-Nov-10 22:33N 57°24' E 011°32'816.1
2018-Nov-10 22:03N 57°16' E 011°37'816.1
2018-Nov-10 21:32N 57°08' E 011°41'816.1
2018-Nov-10 21:02N 57°01' E 011°45'3215.6
2018-Nov-10 18:58N 56°32' E 012°13'3616.7
2018-Nov-10 16:48N 55°60' E 012°41'416.8
2018-Nov-10 16:32N 55°55' E 012°44'816.2
2018-Nov-10 16:02N 55°47' E 012°43'612.9
2018-Nov-10 15:33N 55°42' E 012°36'0 0.2
2018-Nov-10 15:00N 55°42' E 012°36'0 0.0
2018-Nov-10 14:30N 55°42' E 012°36'0 0.0
2018-Nov-10 14:00N 55°42' E 012°36'0 0.0
2018-Nov-10 13:27N 55°42' E 012°36'0 0.0
2018-Nov-10 13:00N 55°42' E 012°36'0 0.0
2018-Nov-10 12:24N 55°42' E 012°36'0 0.0
2018-Nov-10 11:54N 55°42' E 012°36'0 0.0
2018-Nov-10 11:27N 55°42' E 012°36'0 0.0
2018-Nov-10 11:00N 55°42' E 012°36'0 0.0
2018-Nov-10 10:24N 55°42' E 012°36'0 0.0
2018-Nov-10 09:54N 55°42' E 012°36'0 0.0
2018-Nov-10 09:30N 55°42' E 012°36'0 0.0
2018-Nov-10 09:02N 55°42' E 012°36'0 0.3
2018-Nov-10 08:32N 55°42' E 012°36'5 9.7
2018-Nov-10 08:02N 55°46' E 012°41'713.7
2018-Nov-10 07:33N 55°53' E 012°40'714.7
2018-Nov-10 07:03N 56°00' E 012°40'713.7
2018-Nov-10 06:30N 56°06' E 012°33'614.0
2018-Nov-10 06:02N 56°12' E 012°27'6115.8
2018-Nov-10 02:09N 57°11' E 011°54'217.6
2018-Nov-10 02:02N 57°12' E 011°52'917.3
2018-Nov-10 01:32N 57°20' E 011°44'917.0
2018-Nov-10 01:02N 57°27' E 011°36'917.2
2018-Nov-10 00:32N 57°35' E 011°29'816.8
2018-Nov-10 00:02N 57°43' E 011°23'816.1
2018-Nov-09 23:32N 57°50' E 011°17'815.9
2018-Nov-09 23:02N 57°57' E 011°12'815.9
2018-Nov-09 22:32N 58°05' E 011°08'815.1
2018-Nov-09 22:02N 58°12' E 011°04'815.5
2018-Nov-09 21:32N 58°20' E 010°60'816.2
2018-Nov-09 21:01N 58°28' E 010°55'815.9
2018-Nov-09 20:32N 58°35' E 010°51'816.0
2018-Nov-09 20:02N 58°43' E 010°47'816.6
2018-Nov-09 19:32N 58°51' E 010°44'917.4
2018-Nov-09 19:02N 58°60' E 010°42'917.3
2018-Nov-09 18:32N 59°08' E 010°39'917.5
2018-Nov-09 18:02N 59°17' E 010°36'917.7
2018-Nov-09 17:32N 59°26' E 010°33'917.5
2018-Nov-09 17:02N 59°34' E 010°38'714.8
2018-Nov-09 16:32N 59°41' E 010°36'815.9
2018-Nov-09 16:02N 59°49' E 010°34'713.8
2018-Nov-09 15:32N 59°54' E 010°44'0 0.5
2018-Nov-09 15:02N 59°54' E 010°45'0 0.0
2018-Nov-09 14:32N 59°54' E 010°45'0 0.0
2018-Nov-09 13:59N 59°54' E 010°45'0 0.0
2018-Nov-09 13:32N 59°54' E 010°45'0 0.0
2018-Nov-09 13:02N 59°54' E 010°45'0 0.0
2018-Nov-09 12:32N 59°54' E 010°45'0 0.0
2018-Nov-09 12:02N 59°54' E 010°45'0 0.0
2018-Nov-09 11:32N 59°54' E 010°45'0 0.0
2018-Nov-09 11:02N 59°54' E 010°45'0 0.0
2018-Nov-09 10:32N 59°54' E 010°45'0 0.0
2018-Nov-09 10:02N 59°54' E 010°45'0 0.0
2018-Nov-09 09:32N 59°54' E 010°45'0 0.0
2018-Nov-09 09:02N 59°54' E 010°45'0 0.2
2018-Nov-09 08:32N 59°54' E 010°45'713.7
2018-Nov-09 08:02N 59°49' E 010°35'714.6
2018-Nov-09 07:32N 59°42' E 010°36'713.5
2018-Nov-09 07:02N 59°35' E 010°38'815.6
2018-Nov-09 06:32N 59°28' E 010°34'815.5
2018-Nov-09 06:02N 59°20' E 010°36'815.8
2018-Nov-09 05:32N 59°12' E 010°38'815.8
2018-Nov-09 05:02N 59°04' E 010°41'816.2
2018-Nov-09 04:32N 58°56' E 010°42'816.0
2018-Nov-09 04:02N 58°48' E 010°44'816.0
2018-Nov-09 03:32N 58°40' E 010°46'815.8
2018-Nov-09 03:01N 58°33' E 010°51'816.2
2018-Nov-09 02:32N 58°25' E 010°56'816.1
2018-Nov-09 02:02N 58°18' E 011°01'816.0
2018-Nov-09 01:32N 58°10' E 011°06'817.1
2018-Nov-09 01:02N 58°02' E 011°11'816.9
2018-Nov-09 00:32N 57°54' E 011°16'816.4
2018-Nov-09 00:02N 57°46' E 011°21'816.2
2018-Nov-08 23:32N 57°39' E 011°27'815.7
2018-Nov-08 23:02N 57°31' E 011°31'816.5
2018-Nov-08 22:32N 57°24' E 011°39'917.1
2018-Nov-08 22:02N 57°17' E 011°48'817.0
2018-Nov-08 21:32N 57°10' E 011°55'816.3
2018-Nov-08 21:02N 57°02' E 012°01'5816.0
2018-Nov-08 17:24N 56°07' E 012°34'617.1
2018-Nov-08 17:02N 56°02' E 012°40'816.6
2018-Nov-08 16:32N 55°54' E 012°44'815.2
2018-Nov-08 16:02N 55°46' E 012°42'510.9
2018-Nov-08 15:32N 55°42' E 012°36'0 0.1
2018-Nov-08 15:02N 55°42' E 012°36'0 0.0
2018-Nov-08 14:32N 55°42' E 012°36'0 0.0
2018-Nov-08 14:02N 55°42' E 012°36'0 0.0
2018-Nov-08 13:32N 55°42' E 012°36'0 0.0
2018-Nov-08 12:56N 55°42' E 012°36'0 0.0
2018-Nov-08 12:32N 55°42' E 012°36'0 0.0
2018-Nov-08 12:02N 55°42' E 012°36'0 0.0
2018-Nov-08 11:32N 55°42' E 012°36'0 0.0
2018-Nov-08 11:02N 55°42' E 012°36'0 0.0
2018-Nov-08 10:32N 55°42' E 012°36'0 0.0
2018-Nov-08 10:02N 55°42' E 012°36'0 0.0
2018-Nov-08 09:32N 55°42' E 012°36'0 0.0
2018-Nov-08 09:02N 55°42' E 012°36'0 0.8
2018-Nov-08 08:33N 55°42' E 012°36'510.0
2018-Nov-08 08:02N 55°46' E 012°41'714.3
2018-Nov-08 07:32N 55°54' E 012°40'714.6
2018-Nov-08 07:02N 56°01' E 012°40'713.6
2018-Nov-08 06:33N 56°06' E 012°33'813.8
2018-Nov-08 05:58N 56°13' E 012°26'2515.2
2018-Nov-08 04:22N 56°37' E 012°15'3815.6
2018-Nov-08 01:56N 57°13' E 011°53'615.9
2018-Nov-08 01:32N 57°18' E 011°48'816.0
2018-Nov-08 01:02N 57°25' E 011°40'516.3
2018-Nov-08 00:43N 57°29' E 011°35'315.7
2018-Nov-08 00:32N 57°32' E 011°32'115.3
2018-Nov-08 00:29N 57°33' E 011°31'716.2
2018-Nov-08 00:02N 57°39' E 011°25'816.4
2018-Nov-07 23:32N 57°47' E 011°19'816.5
2018-Nov-07 23:03N 57°54' E 011°14'816.3
2018-Nov-07 22:32N 58°02' E 011°10'815.9
2018-Nov-07 22:02N 58°10' E 011°05'816.1
2018-Nov-07 21:32N 58°18' E 011°01'816.0
2018-Nov-07 21:01N 58°26' E 010°57'1016.8
2018-Nov-07 20:25N 58°35' E 010°51'716.3
2018-Nov-07 20:01N 58°42' E 010°47'816.9
2018-Nov-07 19:32N 58°49' E 010°44'816.4
2018-Nov-07 19:02N 58°57' E 010°40'917.1
2018-Nov-07 18:32N 59°06' E 010°40'917.3
2018-Nov-07 18:02N 59°14' E 010°37'918.2
2018-Nov-07 17:32N 59°23' E 010°34'917.8
2018-Nov-07 17:02N 59°32' E 010°36'816.1
2018-Nov-07 16:32N 59°40' E 010°37'815.7
2018-Nov-07 16:02N 59°48' E 010°34'815.0
2018-Nov-07 15:32N 59°54' E 010°43'1 1.2
2018-Nov-07 14:57N 59°54' E 010°45'0 0.0
2018-Nov-07 14:30N 59°54' E 010°45'0 0.0
2018-Nov-07 14:00N 59°54' E 010°45'0 0.0
2018-Nov-07 13:30N 59°54' E 010°45'0 0.0
2018-Nov-07 12:57N 59°54' E 010°45'0 0.0
2018-Nov-07 12:30N 59°54' E 010°45'0 0.0
2018-Nov-07 12:00N 59°54' E 010°45'0 0.0
2018-Nov-07 11:30N 59°54' E 010°45'0 0.0
2018-Nov-07 11:00N 59°54' E 010°45'0 0.0
2018-Nov-07 10:30N 59°54' E 010°45'0 0.0
2018-Nov-07 09:57N 59°54' E 010°45'0 0.0
2018-Nov-07 09:30N 59°54' E 010°45'0 0.0
2018-Nov-07 09:00N 59°54' E 010°45'0 0.3
2018-Nov-07 08:32N 59°54' E 010°44'713.9
2018-Nov-07 08:02N 59°49' E 010°35'815.2
2018-Nov-07 07:32N 59°41' E 010°36'714.3
2018-Nov-07 07:02N 59°34' E 010°38'815.4
2018-Nov-07 06:32N 59°27' E 010°34'815.3
2018-Nov-07 06:02N 59°20' E 010°36'815.3
2018-Nov-07 05:32N 59°12' E 010°39'815.4
2018-Nov-07 05:02N 59°04' E 010°41'815.9
2018-Nov-07 04:32N 58°57' E 010°43'8216.2
2018-Nov-06 23:30N 57°38' E 011°27'716.4
2018-Nov-06 23:04N 57°31' E 011°32'117.0
2018-Nov-06 23:00N 57°31' E 011°33'1716.6
2018-Nov-06 22:00N 57°16' E 011°49'816.6
2018-Nov-06 21:30N 57°09' E 011°56'715.8
2018-Nov-06 21:02N 57°02' E 012°01'315.4
2018-Nov-06 20:50N 56°60' E 012°04'516.2
2018-Nov-06 20:30N 56°55' E 012°07'716.2
2018-Nov-06 20:03N 56°48' E 012°11'116.3
2018-Nov-06 19:59N 56°46' E 012°12'815.8
2018-Nov-06 19:30N 56°39' E 012°15'1115.5
2018-Nov-06 18:48N 56°28' E 012°19'2216.0
2018-Nov-06 17:24N 56°07' E 012°33'617.6
2018-Nov-06 17:03N 56°03' E 012°40'116.9
2018-Nov-06 17:00N 56°02' E 012°40'816.9
2018-Nov-06 16:30N 55°54' E 012°46'715.8
2018-Nov-06 16:03N 55°47' E 012°43'115.1
2018-Nov-06 16:00N 55°46' E 012°43'611.4
2018-Nov-06 15:31N 55°42' E 012°36'0 0.0
2018-Nov-06 15:03N 55°42' E 012°36'0 0.0
2018-Nov-06 15:00N 55°42' E 012°36'0 0.0
2018-Nov-06 14:29N 55°42' E 012°36'0 0.0
2018-Nov-06 14:02N 55°42' E 012°36'0 0.0
2018-Nov-06 13:56N 55°42' E 012°36'0 0.0
2018-Nov-06 13:29N 55°42' E 012°36'0 0.0
2018-Nov-06 13:02N 55°42' E 012°36'0 0.0
2018-Nov-06 12:59N 55°42' E 012°36'0 0.0
2018-Nov-06 12:26N 55°42' E 012°36'0 0.0
2018-Nov-06 12:02N 55°42' E 012°36'0 0.0
2018-Nov-06 11:59N 55°42' E 012°36'0 0.0
2018-Nov-06 11:29N 55°42' E 012°36'0 0.0
2018-Nov-06 11:02N 55°42' E 012°36'0 0.0
2018-Nov-06 10:59N 55°42' E 012°36'0 0.0
2018-Nov-06 10:29N 55°42' E 012°36'0 0.0
2018-Nov-06 10:02N 55°42' E 012°36'0 0.0
2018-Nov-06 09:59N 55°42' E 012°36'0 0.0
2018-Nov-06 09:29N 55°42' E 012°36'0 0.0
2018-Nov-06 09:02N 55°42' E 012°36'0 0.0
2018-Nov-06 08:59N 55°42' E 012°36'0 0.7
2018-Nov-06 08:30N 55°42' E 012°36'510.9
2018-Nov-06 08:03N 55°46' E 012°41'113.5
2018-Nov-06 08:01N 55°47' E 012°42'713.2
2018-Nov-06 07:30N 55°53' E 012°39'613.9
2018-Nov-06 07:03N 55°60' E 012°40'115.1
2018-Nov-06 07:00N 56°00' E 012°40'713.5
2018-Nov-06 06:30N 56°06' E 012°33'713.8
2018-Nov-06 06:01N 56°12' E 012°27'014.2
2018-Nov-06 05:59N 56°12' E 012°27'6317.1
2018-Nov-06 02:17N 57°13' E 011°54'416.8
2018-Nov-06 02:03N 57°16' E 011°50'116.9
2018-Nov-06 02:00N 57°17' E 011°50'816.6
2018-Nov-06 01:31N 57°24' E 011°41'816.1
2018-Nov-06 01:01N 57°31' E 011°34'2516.4
2018-Nov-05 23:31N 57°53' E 011°13'716.1
2018-Nov-05 23:03N 58°00' E 011°11'116.3
2018-Nov-05 23:01N 58°01' E 011°10'815.9
2018-Nov-05 22:30N 58°08' E 011°06'715.9
2018-Nov-05 22:03N 58°15' E 011°02'115.7
2018-Nov-05 22:01N 58°16' E 011°02'815.9
2018-Nov-05 21:30N 58°24' E 010°58'716.4
2018-Nov-05 21:03N 58°31' E 010°54'115.9
2018-Nov-05 21:00N 58°32' E 010°53'815.7
2018-Nov-05 20:30N 58°39' E 010°49'715.8
2018-Nov-05 20:03N 58°46' E 010°46'116.5
2018-Nov-05 20:00N 58°47' E 010°46'816.5
2018-Nov-05 19:30N 58°55' E 010°43'817.2
2018-Nov-05 19:03N 59°03' E 010°41'116.9
2018-Nov-05 19:00N 59°03' E 010°40'816.8
2018-Nov-05 18:31N 59°12' E 010°38'817.1
2018-Nov-05 18:03N 59°19' E 010°35'117.0
2018-Nov-05 18:01N 59°20' E 010°35'816.9
2018-Nov-05 17:31N 59°29' E 010°34'816.8
2018-Nov-05 17:03N 59°36' E 010°38'116.7
2018-Nov-05 17:01N 59°37' E 010°37'815.0
2018-Nov-05 16:31N 59°44' E 010°33'817.0
2018-Nov-05 16:03N 59°51' E 010°36'117.1
2018-Nov-05 16:01N 59°52' E 010°38'4 8.2
2018-Nov-05 15:30N 59°54' E 010°45'0 0.0
2018-Nov-05 15:03N 59°54' E 010°45'0 0.0
2018-Nov-05 14:59N 59°54' E 010°45'0 0.0
2018-Nov-05 14:28N 59°54' E 010°45'0 0.0
2018-Nov-05 14:01N 59°54' E 010°45'0 0.0
2018-Nov-05 13:55N 59°54' E 010°45'0 0.0
2018-Nov-05 13:01N 59°54' E 010°45'0 0.0
2018-Nov-05 12:58N 59°54' E 010°45'0 0.0
2018-Nov-05 12:28N 59°54' E 010°45'0 0.0
2018-Nov-05 12:01N 59°54' E 010°45'0 0.0
2018-Nov-05 11:55N 59°54' E 010°45'0 0.0
2018-Nov-05 11:23N 59°54' E 010°45'0 0.0
2018-Nov-05 11:02N 59°54' E 010°45'0 0.0
2018-Nov-05 10:58N 59°54' E 010°45'0 0.0
2018-Nov-05 10:29N 59°54' E 010°45'0 0.0
2018-Nov-05 09:58N 59°54' E 010°45'0 0.0
2018-Nov-05 09:28N 59°54' E 010°45'0 0.0
2018-Nov-05 09:02N 59°54' E 010°45'0 0.0
2018-Nov-05 08:58N 59°54' E 010°45'0 0.6
2018-Nov-05 08:30N 59°54' E 010°44'613.2
2018-Nov-05 08:03N 59°50' E 010°36'115.6
2018-Nov-05 08:00N 59°49' E 010°35'714.8
2018-Nov-05 07:30N 59°42' E 010°36'614.1
2018-Nov-05 07:03N 59°35' E 010°38'115.4
2018-Nov-05 07:00N 59°35' E 010°38'815.5
2018-Nov-05 06:31N 59°27' E 010°34'716.1
2018-Nov-05 06:03N 59°20' E 010°36'116.6
2018-Nov-05 06:00N 59°19' E 010°36'816.6
2018-Nov-05 05:30N 59°11' E 010°39'715.9
2018-Nov-05 05:04N 59°04' E 010°41'115.8
2018-Nov-05 05:00N 59°03' E 010°41'815.7
2018-Nov-05 04:30N 58°56' E 010°44'715.3
2018-Nov-05 04:03N 58°49' E 010°46'115.8
2018-Nov-05 04:00N 58°48' E 010°46'816.4
2018-Nov-05 03:30N 58°40' E 010°48'715.7
2018-Nov-05 03:04N 58°33' E 010°51'115.9
2018-Nov-05 03:00N 58°32' E 010°52'816.4
2018-Nov-05 02:31N 58°24' E 010°57'816.4
2018-Nov-05 02:03N 58°17' E 011°01'116.0
2018-Nov-05 02:01N 58°17' E 011°02'918.0
2018-Nov-05 01:30N 58°08' E 011°07'716.5
2018-Nov-05 01:03N 58°01' E 011°12'116.1
2018-Nov-05 01:01N 58°00' E 011°12'816.0
2018-Nov-05 00:31N 57°53' E 011°18'715.7
2018-Nov-05 00:04N 57°46' E 011°22'116.0
2018-Nov-05 00:01N 57°46' E 011°23'816.0
2018-Nov-04 23:31N 57°38' E 011°27'715.5
2018-Nov-04 23:04N 57°31' E 011°32'116.2
2018-Nov-04 23:01N 57°31' E 011°33'816.4
2018-Nov-04 22:30N 57°24' E 011°40'716.5
2018-Nov-04 22:03N 57°17' E 011°48'116.1
2018-Nov-04 22:00N 57°17' E 011°49'816.2
2018-Nov-04 21:30N 57°10' E 011°56'715.8
2018-Nov-04 21:03N 57°03' E 012°01'116.2
2018-Nov-04 21:00N 57°02' E 012°01'1815.8
2018-Nov-04 19:51N 56°45' E 012°12'4516.3
2018-Nov-04 17:03N 56°02' E 012°40'117.0
2018-Nov-04 17:00N 56°01' E 012°40'917.1
2018-Nov-04 16:30N 55°53' E 012°44'716.6
2018-Nov-04 16:04N 55°46' E 012°42'115.8
2018-Nov-04 16:00N 55°45' E 012°42'4 8.6
2018-Nov-04 15:30N 55°42' E 012°36'0 0.0
2018-Nov-04 15:02N 55°42' E 012°36'0 0.0
2018-Nov-04 14:59N 55°42' E 012°36'0 0.0
2018-Nov-04 14:29N 55°42' E 012°36'0 0.0
2018-Nov-04 14:02N 55°42' E 012°36'0 0.0
2018-Nov-04 13:59N 55°42' E 012°36'0 0.0
2018-Nov-04 13:29N 55°42' E 012°36'0 0.0
2018-Nov-04 13:02N 55°42' E 012°36'0 0.0
2018-Nov-04 12:59N 55°42' E 012°36'0 0.0
2018-Nov-04 12:29N 55°42' E 012°36'0 0.0
2018-Nov-04 11:59N 55°42' E 012°36'0 0.0
2018-Nov-04 11:29N 55°42' E 012°36'0 0.0
2018-Nov-04 11:02N 55°42' E 012°36'0 0.0
2018-Nov-04 10:59N 55°42' E 012°36'0 0.0
2018-Nov-04 10:29N 55°42' E 012°36'0 0.0
2018-Nov-04 10:02N 55°42' E 012°36'0 0.0
2018-Nov-04 09:56N 55°42' E 012°36'0 0.0
2018-Nov-04 09:26N 55°42' E 012°36'0 0.0
2018-Nov-04 08:56N 55°42' E 012°36'0 0.8
2018-Nov-04 08:30N 55°42' E 012°36'510.7
2018-Nov-04 08:03N 55°46' E 012°41'113.5
2018-Nov-04 08:00N 55°47' E 012°42'713.4
2018-Nov-04 07:30N 55°53' E 012°40'614.2
2018-Nov-04 07:03N 55°60' E 012°40'114.7
2018-Nov-04 07:00N 56°01' E 012°40'713.8
2018-Nov-04 06:29N 56°07' E 012°33'614.1
2018-Nov-04 06:02N 56°12' E 012°27'114.3
2018-Nov-04 05:58N 56°13' E 012°27'6416.6
2018-Nov-04 02:07N 57°14' E 011°52'118.4
2018-Nov-04 02:03N 57°15' E 011°51'118.4
2018-Nov-04 02:00N 57°16' E 011°50'917.8
2018-Nov-04 01:31N 57°23' E 011°40'716.6
2018-Nov-04 01:03N 57°29' E 011°33'117.0
2018-Nov-04 01:00N 57°30' E 011°32'917.1
2018-Nov-04 00:30N 57°38' E 011°26'816.9
2018-Nov-04 00:03N 57°45' E 011°20'116.9
2018-Nov-04 00:00N 57°46' E 011°20'816.9
2018-Nov-03 23:30N 57°54' E 011°14'716.1
2018-Nov-03 23:03N 58°01' E 011°10'115.3
2018-Nov-03 23:00N 58°01' E 011°10'815.4
2018-Nov-03 22:30N 58°09' E 011°06'3115.4
2018-Nov-03 20:30N 58°39' E 010°49'715.4
2018-Nov-03 20:03N 58°45' E 010°46'116.0
2018-Nov-03 20:00N 58°46' E 010°46'816.3
2018-Nov-03 19:30N 58°54' E 010°44'716.2
2018-Nov-03 19:03N 59°01' E 010°41'116.0
2018-Nov-03 19:00N 59°02' E 010°41'816.2
2018-Nov-03 18:30N 59°10' E 010°39'716.3
2018-Nov-03 18:03N 59°17' E 010°36'116.4
2018-Nov-03 18:00N 59°18' E 010°36'816.6
2018-Nov-03 17:30N 59°26' E 010°33'816.7
2018-Nov-03 17:03N 59°33' E 010°37'116.5
2018-Nov-03 17:00N 59°34' E 010°38'815.1
2018-Nov-03 16:30N 59°42' E 010°35'716.5
2018-Nov-03 16:03N 59°49' E 010°34'117.2
2018-Nov-03 16:00N 59°50' E 010°35'713.2
2018-Nov-03 15:30N 59°54' E 010°45'0 0.2
2018-Nov-03 15:01N 59°54' E 010°45'0 0.0
2018-Nov-03 14:58N 59°54' E 010°45'0 0.0
2018-Nov-03 14:28N 59°54' E 010°45'0 0.0
2018-Nov-03 14:01N 59°54' E 010°45'0 0.0
2018-Nov-03 13:58N 59°54' E 010°45'0 0.0
2018-Nov-03 13:28N 59°54' E 010°45'0 0.0
2018-Nov-03 13:01N 59°54' E 010°45'0 0.0
2018-Nov-03 12:58N 59°54' E 010°45'0 0.0
2018-Nov-03 12:28N 59°54' E 010°45'0 0.0
2018-Nov-03 12:01N 59°54' E 010°45'0 0.0
2018-Nov-03 11:58N 59°54' E 010°45'0 0.0
2018-Nov-03 11:28N 59°54' E 010°45'0 0.0
2018-Nov-03 11:01N 59°54' E 010°45'0 0.0
2018-Nov-03 10:58N 59°54' E 010°45'0 0.0
2018-Nov-03 10:28N 59°54' E 010°45'0 0.0
2018-Nov-03 10:01N 59°54' E 010°45'0 0.0
2018-Nov-03 09:58N 59°54' E 010°45'0 0.0
2018-Nov-03 09:28N 59°54' E 010°45'0 0.0
2018-Nov-03 09:01N 59°54' E 010°45'0 0.0
2018-Nov-03 08:58N 59°54' E 010°45'0 0.2
2018-Nov-03 08:30N 59°54' E 010°45'613.5
2018-Nov-03 08:03N 59°50' E 010°36'116.3
2018-Nov-03 08:00N 59°49' E 010°35'612.3
2018-Nov-03 07:30N 59°43' E 010°35'614.2
2018-Nov-03 07:03N 59°37' E 010°38'117.4
2018-Nov-03 07:00N 59°36' E 010°38'714.9
2018-Nov-03 06:31N 59°29' E 010°34'715.4
2018-Nov-03 06:04N 59°22' E 010°35'115.9
2018-Nov-03 06:01N 59°21' E 010°35'815.7
2018-Nov-03 05:31N 59°13' E 010°38'715.9
2018-Nov-03 05:04N 59°06' E 010°41'116.0
2018-Nov-03 05:01N 59°05' E 010°41'815.8
2018-Nov-03 04:31N 58°58' E 010°43'715.9
2018-Nov-03 04:03N 58°51' E 010°46'116.0
2018-Nov-03 04:00N 58°50' E 010°46'815.8
2018-Nov-03 03:30N 58°42' E 010°49'715.5
2018-Nov-03 03:03N 58°35' E 010°51'115.7
2018-Nov-03 03:01N 58°34' E 010°51'815.6
2018-Nov-03 02:30N 58°27' E 010°55'715.8
2018-Nov-03 02:02N 58°20' E 010°59'116.3
2018-Nov-03 02:00N 58°19' E 010°60'816.2
2018-Nov-03 01:30N 58°12' E 011°05'715.9
2018-Nov-03 01:03N 58°05' E 011°09'115.7
2018-Nov-03 01:01N 58°04' E 011°09'815.9
2018-Nov-03 00:31N 57°57' E 011°14'716.0
2018-Nov-03 00:04N 57°50' E 011°19'116.3
2018-Nov-03 00:01N 57°49' E 011°19'816.2
2018-Nov-02 23:31N 57°41' E 011°25'716.0
2018-Nov-02 23:03N 57°35' E 011°30'115.8
2018-Nov-02 23:01N 57°34' E 011°30'815.7
2018-Nov-02 22:31N 57°27' E 011°37'715.8
2018-Nov-02 22:04N 57°21' E 011°44'116.0
2018-Nov-02 22:01N 57°20' E 011°45'815.6
2018-Nov-02 21:31N 57°14' E 011°53'715.8
2018-Nov-02 21:04N 57°07' E 011°57'116.0
2018-Nov-02 21:01N 57°07' E 011°58'916.0
2018-Nov-02 20:27N 56°58' E 012°05'5416.9
2018-Nov-02 17:14N 56°06' E 012°34'318.6
2018-Nov-02 17:04N 56°04' E 012°38'118.2
2018-Nov-02 17:01N 56°03' E 012°39'917.1
2018-Nov-02 16:31N 55°55' E 012°44'816.8
2018-Nov-02 16:04N 55°48' E 012°43'115.9
2018-Nov-02 16:01N 55°47' E 012°42'612.0
2018-Nov-02 15:30N 55°42' E 012°36'0 0.1
2018-Nov-02 15:03N 55°42' E 012°36'0 0.0
2018-Nov-02 14:59N 55°42' E 012°36'0 0.0
2018-Nov-02 14:29N 55°42' E 012°36'0 0.0
2018-Nov-02 13:59N 55°42' E 012°36'0 0.0
2018-Nov-02 13:29N 55°42' E 012°36'0 0.0
2018-Nov-02 12:59N 55°42' E 012°36'0 0.0
2018-Nov-02 12:29N 55°42' E 012°36'0 0.0
2018-Nov-02 12:02N 55°42' E 012°36'0 0.0
2018-Nov-02 11:59N 55°42' E 012°36'0 0.0
2018-Nov-02 11:29N 55°42' E 012°36'0 0.0
2018-Nov-02 10:59N 55°42' E 012°36'0 0.0
2018-Nov-02 10:26N 55°42' E 012°36'0 0.0
2018-Nov-02 10:02N 55°42' E 012°36'0 0.0
2018-Nov-02 09:53N 55°42' E 012°36'0 0.0
2018-Nov-02 09:29N 55°42' E 012°36'0 0.0
2018-Nov-02 09:02N 55°42' E 012°36'0 0.0
2018-Nov-02 08:53N 55°42' E 012°36'0 0.9
2018-Nov-02 08:31N 55°42' E 012°36'511.9
2018-Nov-02 08:03N 55°47' E 012°42'115.1
2018-Nov-02 08:00N 55°48' E 012°42'815.0
2018-Nov-02 07:30N 55°55' E 012°39'715.2
2018-Nov-02 07:03N 56°02' E 012°40'114.7
2018-Nov-02 07:00N 56°02' E 012°39'713.8
2018-Nov-02 06:30N 56°07' E 012°31'614.2
2018-Nov-02 06:03N 56°13' E 012°26'6315.4
2018-Nov-02 01:57N 57°14' E 011°52'716.8
2018-Nov-02 01:30N 57°20' E 011°45'816.7
2018-Nov-02 01:03N 57°27' E 011°39'117.0
2018-Nov-02 01:00N 57°28' E 011°38'117.0
2018-Nov-02 00:56N 57°29' E 011°37'616.8
2018-Nov-02 00:36N 57°34' E 011°32'216.7
2018-Nov-02 00:30N 57°35' E 011°30'716.6
2018-Nov-02 00:03N 57°41' E 011°23'116.3
2018-Nov-02 00:00N 57°42' E 011°23'816.5
2018-Nov-01 23:30N 57°50' E 011°17'716.5
2018-Nov-01 23:03N 57°57' E 011°13'116.1
2018-Nov-01 23:00N 57°58' E 011°12'816.0
2018-Nov-01 22:30N 58°05' E 011°08'715.6
2018-Nov-01 22:03N 58°12' E 011°04'115.7
2018-Nov-01 22:00N 58°13' E 011°04'815.9
2018-Nov-01 21:30N 58°21' E 010°60'716.2
2018-Nov-01 21:03N 58°28' E 010°56'116.5
2018-Nov-01 21:00N 58°28' E 010°55'816.8
2018-Nov-01 20:30N 58°37' E 010°51'817.0
2018-Nov-01 20:03N 58°44' E 010°47'116.9
2018-Nov-01 20:00N 58°45' E 010°47'917.2
2018-Nov-01 19:30N 58°53' E 010°44'817.1
2018-Nov-01 19:03N 59°01' E 010°41'117.1
2018-Nov-01 19:00N 59°01' E 010°41'917.2
2018-Nov-01 18:30N 59°10' E 010°38'817.0
2018-Nov-01 18:03N 59°18' E 010°36'117.1
2018-Nov-01 18:00N 59°18' E 010°36'917.0
2018-Nov-01 17:30N 59°27' E 010°33'817.7
2018-Nov-01 17:03N 59°34' E 010°38'117.7
2018-Nov-01 17:00N 59°35' E 010°38'815.2
2018-Nov-01 16:30N 59°43' E 010°35'715.0
2018-Nov-01 16:03N 59°49' E 010°34'117.3
2018-Nov-01 16:00N 59°50' E 010°35'612.5
2018-Nov-01 15:30N 59°54' E 010°45'0 0.1
2018-Nov-01 15:01N 59°54' E 010°45'0 0.0
2018-Nov-01 14:53N 59°54' E 010°45'0 0.0
2018-Nov-01 14:22N 59°54' E 010°45'0 0.0
2018-Nov-01 13:55N 59°54' E 010°45'0 0.0
2018-Nov-01 13:28N 59°54' E 010°45'0 0.0
2018-Nov-01 12:58N 59°54' E 010°45'0 0.0
2018-Nov-01 12:29N 59°54' E 010°45'0 0.0
2018-Nov-01 11:59N 59°54' E 010°45'0 0.0
2018-Nov-01 11:28N 59°54' E 010°45'0 0.0
2018-Nov-01 10:58N 59°54' E 010°45'0 0.0
2018-Nov-01 10:28N 59°54' E 010°45'0 0.0
2018-Nov-01 10:01N 59°54' E 010°45'0 0.0
2018-Nov-01 09:58N 59°54' E 010°45'0 0.0
2018-Nov-01 09:28N 59°54' E 010°45'0 0.0
2018-Nov-01 09:01N 59°54' E 010°45'0 0.0
2018-Nov-01 08:58N 59°54' E 010°45'0 1.1
2018-Nov-01 08:30N 59°54' E 010°44'613.8
2018-Nov-01 08:03N 59°50' E 010°35'115.8
2018-Nov-01 08:00N 59°49' E 010°35'714.7
2018-Nov-01 07:30N 59°41' E 010°36'613.6
2018-Nov-01 07:03N 59°35' E 010°38'114.5
2018-Nov-01 07:01N 59°35' E 010°38'714.8
2018-Nov-01 06:31N 59°28' E 010°34'715.4
2018-Nov-01 06:03N 59°21' E 010°36'115.8
2018-Nov-01 06:00N 59°20' E 010°36'815.8
2018-Nov-01 05:31N 59°12' E 010°39'715.4
2018-Nov-01 05:03N 59°05' E 010°41'115.4
2018-Nov-01 05:01N 59°05' E 010°41'815.6
2018-Nov-01 04:30N 58°57' E 010°43'715.5
2018-Nov-01 04:04N 58°50' E 010°44'115.3
2018-Nov-01 04:01N 58°49' E 010°44'815.5
2018-Nov-01 03:30N 58°41' E 010°46'715.9
2018-Nov-01 03:04N 58°35' E 010°50'116.0
2018-Nov-01 03:00N 58°34' E 010°50'  

Dump ship's entire track history